Terminal Aerodrome Forecast
Issued by NWS Tampa Bay Area, FL

Home | Current Version | Previous Version | Text Only | Print | Product List | Glossary On
Versions: 1 2 3 4 5 6 7 8 9 10 11 12 13 14 15 16 17 18 19 20 21 22 23 24 25 26 27
922
FTUS42 KTBW 231518 AAA
TAFTPA
TAF AMD
KTPA 231518Z 2315/2418 18008KT P6SM FEW015 BKN050 BKN100
     FM231800 22010KT P6SM VCSH SCT020 BKN040 OVC100
     FM232100 23010KT P6SM SCT050 OVC100
     FM240200 22006KT P6SM SCT020 BKN040
     FM240900 VRB05KT P6SM SCT015 BKN030
     FM241600 26008KT P6SM SCT020 BKN050=

USA.gov is the U.S. government's official web portal to all federal, state and local government web resources and services.